createdAt,value
2024-04-01T00:04:09.974Z,948.11
2024-04-01T00:09:22.716Z,948.09
2024-04-01T00:14:35.268Z,948.26
2024-04-01T00:19:47.951Z,948.27
2024-04-01T00:25:00.482Z,948.17
2024-04-01T00:30:13.053Z,947.97
2024-04-01T00:35:25.717Z,947.99
2024-04-01T00:40:38.270Z,947.82
2024-04-01T00:45:51.017Z,947.79
2024-04-01T00:51:03.587Z,947.42
2024-04-01T00:56:16.146Z,947.28
2024-04-01T01:01:28.764Z,947.16
2024-04-01T01:06:41.367Z,946.88
2024-04-01T01:11:53.973Z,946.62
2024-04-01T01:17:06.034Z,946.55
2024-04-01T01:22:18.126Z,946.85
2024-04-01T01:27:30.810Z,946.64
2024-04-01T01:32:42.922Z,946.69
2024-04-01T01:37:55.608Z,946.62
2024-04-01T01:43:08.277Z,946.64
2024-04-01T01:48:20.939Z,946.63
2024-04-01T01:53:33.563Z,946.37
2024-04-01T01:58:45.582Z,946.47
2024-04-01T02:03:57.613Z,946.61
2024-04-01T02:09:09.873Z,946.65
2024-04-01T02:14:22.486Z,946.22
2024-04-01T02:19:34.544Z,945.79
2024-04-01T02:24:46.992Z,945.62
2024-04-01T02:29:58.977Z,946.02
2024-04-01T02:35:11.085Z,946.27
2024-04-01T02:40:23.177Z,946.04
2024-04-01T02:45:35.176Z,945.9
2024-04-01T02:50:47.835Z,945.66
2024-04-01T02:55:59.860Z,945.77
2024-04-01T03:01:11.945Z,945.83
2024-04-01T03:06:24.062Z,945.68
2024-04-01T03:11:36.130Z,945.47
2024-04-01T03:16:48.202Z,945.29
2024-04-01T03:22:00.155Z,945.46
2024-04-01T03:27:12.108Z,945.53
2024-04-01T03:32:24.087Z,945.96
2024-04-01T03:37:36.812Z,946.03
2024-04-01T03:42:48.901Z,946
2024-04-01T03:48:00.865Z,945.94
2024-04-01T03:53:12.823Z,945.88
2024-04-01T03:58:24.785Z,945.91
2024-04-01T04:03:36.757Z,945.72
2024-04-01T04:08:48.731Z,945.78
2024-04-01T04:14:00.685Z,945.25
2024-04-01T04:19:12.761Z,945.54
2024-04-01T04:24:24.746Z,945.63
2024-04-01T04:29:36.793Z,945.68
2024-04-01T04:34:51.378Z,945.53
2024-04-01T04:40:03.342Z,945.66
2024-04-01T04:45:15.369Z,945.8
2024-04-01T04:50:27.865Z,945.77
2024-04-01T04:55:40.024Z,945.81
2024-04-01T05:00:52.646Z,946.06
2024-04-01T05:06:05.208Z,946.51
2024-04-01T05:11:17.288Z,946.37
2024-04-01T05:16:29.898Z,946.67
2024-04-01T05:21:42.436Z,946.97
2024-04-01T05:26:58.334Z,947.26
2024-04-01T05:32:10.894Z,947.31
2024-04-01T05:37:23.458Z,947.37
2024-04-01T05:42:35.500Z,947.44
2024-04-01T05:47:47.569Z,947.51
2024-04-01T05:53:00.397Z,947.94
2024-04-01T05:58:12.444Z,947.78
2024-04-01T06:03:24.566Z,947.8
2024-04-01T06:08:36.653Z,947.62
2024-04-01T06:13:48.600Z,947.73
2024-04-01T06:19:00.562Z,947.77
2024-04-01T06:24:13.985Z,947.77
2024-04-01T06:29:25.944Z,948.19
2024-04-01T06:34:37.903Z,948.33
2024-04-01T06:39:49.859Z,948.29
2024-04-01T06:45:01.806Z,948.43
2024-04-01T06:50:13.764Z,948.74
2024-04-01T06:55:26.546Z,948.61
2024-04-01T07:00:38.571Z,948.5
2024-04-01T07:05:50.722Z,948.72
2024-04-01T07:11:02.687Z,948.72
2024-04-01T07:16:14.720Z,948.79
2024-04-01T07:21:27.581Z,948.98
2024-04-01T07:26:39.632Z,948.92
2024-04-01T07:31:51.593Z,949.04
2024-04-01T07:37:03.611Z,949.18
2024-04-01T07:42:15.590Z,949.36
2024-04-01T07:47:27.683Z,949.57
2024-04-01T07:52:39.767Z,949.85
2024-04-01T07:57:51.709Z,950.05
2024-04-01T08:03:03.702Z,950.25
2024-04-01T08:08:15.788Z,950.25
2024-04-01T08:13:27.741Z,950.54
2024-04-01T08:18:39.702Z,950.65
2024-04-01T08:23:51.787Z,950.74
2024-04-01T08:29:03.816Z,950.68
2024-04-01T08:34:15.903Z,950.78
2024-04-01T08:39:27.988Z,950.89
2024-04-01T08:44:40.198Z,950.85
2024-04-01T08:49:52.166Z,950.89
2024-04-01T08:55:04.124Z,950.84
2024-04-01T09:00:16.070Z,950.79
2024-04-01T09:05:28.103Z,950.8
2024-04-01T09:10:40.097Z,951.05
2024-04-01T09:15:52.090Z,951.2
2024-04-01T09:21:04.044Z,951.33
2024-04-01T09:26:16.051Z,951.59
2024-04-01T09:31:28.023Z,951.63
2024-04-01T09:36:39.972Z,951.56
2024-04-01T09:41:51.938Z,951.57
2024-04-01T09:47:04.026Z,951.7
2024-04-01T09:52:16.055Z,951.71
2024-04-01T09:57:35.437Z,951.85
2024-04-01T10:02:48.899Z,951.91
2024-04-01T10:08:00.973Z,951.91
2024-04-01T10:13:13.066Z,951.98
2024-04-01T10:18:25.597Z,951.92
2024-04-01T10:23:37.689Z,952.31
2024-04-01T10:28:49.683Z,952.78
2024-04-01T10:34:01.671Z,952.74
2024-04-01T10:39:13.839Z,952.82
2024-04-01T10:44:25.815Z,952.94
2024-04-01T10:49:37.945Z,953.11
2024-04-01T10:54:50.047Z,953.14
2024-04-01T11:00:03.506Z,953.32
2024-04-01T11:05:15.458Z,953.41
2024-04-01T11:10:29.368Z,953.72
2024-04-01T11:15:42.901Z,953.71
2024-04-01T11:20:55.192Z,953.82
2024-04-01T11:26:07.158Z,953.98
2024-04-01T11:31:19.304Z,953.8
2024-04-01T11:36:31.474Z,953.91
2024-04-01T11:41:43.580Z,953.99
2024-04-01T11:46:55.597Z,954.23
2024-04-01T11:52:07.634Z,954.34
2024-04-01T11:57:19.674Z,954.72
2024-04-01T12:02:31.714Z,954.87
2024-04-01T12:07:43.798Z,954.96
2024-04-01T12:12:59.122Z,954.87
2024-04-01T12:18:11.216Z,954.93
2024-04-01T12:23:23.178Z,954.92
2024-04-01T12:28:35.175Z,955.02
2024-04-01T12:33:47.280Z,955.08
2024-04-01T12:38:59.425Z,955.31
2024-04-01T12:44:11.423Z,955.37
2024-04-01T12:49:24.008Z,955.48
2024-04-01T12:54:35.959Z,955.63
2024-04-01T12:59:48.114Z,955.83
2024-04-01T13:05:00.224Z,955.9
2024-04-01T13:10:12.189Z,956.02
2024-04-01T13:15:24.389Z,955.92
2024-04-01T13:20:36.467Z,955.93
2024-04-01T13:25:48.619Z,955.88
2024-04-01T13:31:00.752Z,955.88
2024-04-01T13:36:12.896Z,955.98
2024-04-01T13:41:32.201Z,956.05
2024-04-01T13:46:50.884Z,956.23
2024-04-01T13:52:10.714Z,956.24
2024-04-01T13:57:22.815Z,956.35
2024-04-01T14:02:35.482Z,956.24
2024-04-01T14:07:47.679Z,956.33
2024-04-01T14:12:59.632Z,956.23
2024-04-01T14:18:11.715Z,956.36
2024-04-01T14:23:23.886Z,956.52
2024-04-01T14:28:37.052Z,956.46
2024-04-01T14:33:49.013Z,956.53
2024-04-01T14:39:01.026Z,956.64
2024-04-01T14:44:13.041Z,956.63
2024-04-01T14:49:25.311Z,956.63
2024-04-01T14:54:37.327Z,956.7
2024-04-01T14:59:49.407Z,956.66
2024-04-01T15:05:03.450Z,956.71
2024-04-01T15:10:15.417Z,956.69
2024-04-01T15:15:27.620Z,956.62
2024-04-01T15:20:39.742Z,956.61
2024-04-01T15:25:52.095Z,956.72
2024-04-01T15:31:04.278Z,956.7
2024-04-01T15:36:16.309Z,956.87
2024-04-01T15:41:28.415Z,956.96
2024-04-01T15:46:41.465Z,956.89
2024-04-01T15:51:53.590Z,957.02
2024-04-01T15:57:05.842Z,956.96
2024-04-01T16:02:17.900Z,956.81
2024-04-01T16:07:29.871Z,956.74
2024-04-01T16:12:42.023Z,956.77
2024-04-01T16:17:54.130Z,956.85
2024-04-01T16:23:06.231Z,956.77
2024-04-01T16:28:18.194Z,956.68
2024-04-01T16:33:30.365Z,956.72
2024-04-01T16:38:46.999Z,956.82
2024-04-01T16:43:59.121Z,956.8
2024-04-01T16:49:11.606Z,956.8
2024-04-01T16:54:23.576Z,956.85
2024-04-01T16:59:36.011Z,956.87
2024-04-01T17:04:48.845Z,956.92
2024-04-01T17:10:00.965Z,956.95
2024-04-01T17:15:13.739Z,956.99
2024-04-01T17:20:25.707Z,956.99
2024-04-01T17:25:38.388Z,957.03
2024-04-01T17:30:50.411Z,957.02
2024-04-01T17:36:02.497Z,957
2024-04-01T17:41:17.400Z,957.17
2024-04-01T17:46:29.421Z,957.23
2024-04-01T17:51:45.601Z,957.36
2024-04-01T17:56:57.628Z,957.3
2024-04-01T18:02:09.927Z,957.38
2024-04-01T18:07:21.876Z,957.39
2024-04-01T18:12:33.843Z,957.55
2024-04-01T18:17:45.939Z,957.6
2024-04-01T18:22:57.935Z,957.63
2024-04-01T18:28:09.894Z,957.67
2024-04-01T18:33:24.416Z,957.65
2024-04-01T18:38:36.493Z,957.75
2024-04-01T18:43:48.454Z,957.88
2024-04-01T18:49:00.461Z,957.93
2024-04-01T18:54:12.539Z,957.96
2024-04-01T18:59:24.576Z,958.07
2024-04-01T19:04:36.547Z,958.08
2024-04-01T19:09:48.485Z,958.09
2024-04-01T19:15:00.460Z,958.18
2024-04-01T19:20:12.432Z,958.3
2024-04-01T19:25:24.418Z,958.29
2024-04-01T19:30:36.945Z,958.44
2024-04-01T19:35:49.053Z,958.4
2024-04-01T19:41:01.061Z,958.43
2024-04-01T19:46:13.165Z,958.52
2024-04-01T19:51:25.127Z,958.61
2024-04-01T19:56:37.150Z,958.71
2024-04-01T20:01:51.530Z,958.65
2024-04-01T20:07:03.497Z,958.77
2024-04-01T20:12:15.456Z,958.71
2024-04-01T20:17:30.480Z,958.72
2024-04-01T20:22:42.444Z,958.76
2024-04-01T20:27:54.530Z,958.9
2024-04-01T20:33:06.773Z,958.85
2024-04-01T20:38:19.471Z,958.9
2024-04-01T20:43:32.024Z,959.02
2024-04-01T20:48:44.587Z,958.97
2024-04-01T20:54:21.295Z,958.93
2024-04-01T20:59:49.381Z,958.96
2024-04-01T21:05:01.586Z,958.92
2024-04-01T21:10:19.355Z,959.02
2024-04-01T21:15:36.873Z,959.02
2024-04-01T21:20:49.038Z,959
2024-04-01T21:26:01.211Z,959.03
2024-04-01T21:31:13.258Z,959.01
2024-04-01T21:36:25.327Z,959.04
2024-04-01T21:41:38.072Z,959.13
2024-04-01T21:46:50.770Z,959.16
2024-04-01T21:52:03.001Z,959.27
2024-04-01T21:57:15.774Z,959.18
2024-04-01T22:02:27.865Z,959.18
2024-04-01T22:07:40.594Z,959.19
2024-04-01T22:12:53.300Z,959.29
2024-04-01T22:18:05.472Z,959.34
2024-04-01T22:23:18.426Z,959.34
2024-04-01T22:28:30.959Z,959.49
2024-04-01T22:33:43.558Z,959.49
2024-04-01T22:38:56.112Z,959.58
2024-04-01T22:44:08.160Z,959.55
2024-04-01T22:49:20.319Z,959.54
2024-04-01T22:49:32.942Z,959.6
2024-04-01T22:54:47.538Z,959.73
2024-04-01T22:59:59.499Z,959.67
2024-04-01T23:05:12.025Z,959.66
2024-04-01T23:10:24.701Z,959.71
2024-04-01T23:15:36.931Z,959.75
2024-04-01T23:20:48.895Z,959.63
2024-04-01T23:26:01.461Z,959.82
2024-04-01T23:31:14.078Z,959.82
2024-04-01T23:36:26.674Z,959.93
2024-04-01T23:41:38.775Z,960.01
2024-04-01T23:46:51.370Z,959.99
2024-04-01T23:52:03.485Z,960.06
2024-04-01T23:57:16.032Z,960.24
